Time;durP1;ratioP1;P1;durP2;ratioP2;P2;SDS_P1;SDS_P2;PMS_P1;PMS_P2;Temp;Humidity;BMP_temperature;BMP_pressure;BME280_temperature;BME280_humidity;BME280_pressure;Samples;Min_cycle;Max_cycle;Signal;HPM_P1;HPM_P2
2022/09/09 01:25:52;;;;;;;;;;;13.40;99.90;;;;;;5898293;24;19931;-80
2022/09/09 01:29:13;;;;;;;;;;;13.50;99.90;;;;;;5906103;24;19986;-79
2022/09/09 01:39:28;;;;;;;;;;;;;;;;;;;;;
2022/09/09 01:46:12;;;;;;;;;;;;;;;;;;;;;
2022/09/09 02:06:55;;;;;;;;;;;;;;;;;;;;;
2022/09/09 02:24:28;;;;;;;;;;;13.40;99.90;;;;;;5954510;24;19915;-80
2022/09/09 02:34:48;;;;;;;;;;;;;;;;;;;;;
2022/09/09 03:08:26;;;;;;;;;;;;;;;;;;;;;
2022/09/09 03:11:49;;;;;;;;;;;13.20;99.90;;;;;;6115091;23;19917;-79
2022/09/09 03:39:27;;;;;;;;;;;;;;;;;;;;;
2022/09/09 03:42:49;;;;;;;;;;;;;;;;;;;;;
2022/09/09 04:31:35;;;;;;;;;;;13.50;99.90;;;;;;6304946;22;19915;-74
2022/09/09 04:34:05;;;;;;;;;;;13.40;99.90;;;;;;6263823;22;19915;-79
2022/09/09 04:44:27;;;;;;;;;;;;;;;;;;;;;
2022/09/09 04:50:53;;;;;;;;;;;13.60;99.90;;;;;;6092433;23;19912;-84
2022/09/09 04:56:43;;;;;;;;;;;13.60;99.90;;;;;;6048353;23;19954;-84
2022/09/09 05:03:02;;;;;;;;;;;13.90;99.90;;;;;;6156803;23;19913;-84
2022/09/09 05:09:55;;;;;;;;;;;;;;;;;;;;;
2022/09/09 05:22:35;;;;;;;;;;;13.70;99.90;;;;;;6155458;23;19995;-83
2022/09/09 05:29:12;;;;;;;;;;;13.70;99.90;;;;;;6188487;23;19962;-85
2022/09/09 05:32:18;;;;;;;;;;;;;;;;;;;;;
2022/09/09 05:38:18;;;;;;;;;;;;;;;;;;;;;
2022/09/09 05:44:37;;;;;;;;;;;13.70;99.90;;;;;;6232073;23;19923;-81
2022/09/09 05:47:45;;;;;;;;;;;13.90;99.90;;;;;;6183170;23;19905;-81
2022/09/09 05:53:56;;;;;;;;;;;14.10;99.90;;;;;;6053584;23;20244;-82
2022/09/09 05:56:39;;;;;;;;;;;14.30;99.90;;;;;;6061983;23;20268;-82
2022/09/09 05:59:45;;;;;;;;;;;14.00;99.90;;;;;;6154634;23;19913;-82
2022/09/09 06:05:49;;;;;;;;;;;13.90;99.90;;;;;;6042336;23;20053;-82
2022/09/09 06:08:52;;;;;;;;;;;13.90;99.90;;;;;;6060038;23;20227;-82
2022/09/09 06:15:33;;;;;;;;;;;;;;;;;;;;;
2022/09/09 06:18:29;;;;;;;;;;;14.20;99.90;;;;;;6098233;23;20033;-82
2022/09/09 06:21:54;;;;;;;;;;;;;;;;;;;;;
2022/09/09 06:25:17;;;;;;;;;;;;;;;;;;;;;
2022/09/09 06:34:21;;;;;;;;;;;14.40;99.90;;;;;;6300841;22;19972;-80
2022/09/09 06:36:47;;;;;;;;;;;14.50;99.90;;;;;;6307287;22;19922;-77
2022/09/09 06:39:15;;;;;;;;;;;14.50;99.90;;;;;;6307654;22;19911;-76
2022/09/09 06:41:42;;;;;;;;;;;14.50;99.90;;;;;;6281473;22;20233;-75
2022/09/09 06:44:07;;;;;;;;;;;14.50;99.90;;;;;;6307611;22;19915;-75
2022/09/09 06:46:33;;;;;;;;;;;14.60;99.90;;;;;;6307190;22;20313;-76
2022/09/09 06:48:59;;;;;;;;;;;14.60;99.90;;;;;;6307642;22;19911;-77
2022/09/09 06:51:27;;;;;;;;;;;14.50;99.90;;;;;;6281700;22;19915;-77
2022/09/09 06:53:53;;;;;;;;;;;14.50;99.90;;;;;;6307003;22;19928;-78
2022/09/09 06:56:36;;;;;;;;;;;14.50;99.90;;;;;;6281290;22;20007;-78
2022/09/09 06:59:03;;;;;;;;;;;14.60;99.90;;;;;;6281339;22;19956;-77
2022/09/09 07:01:30;;;;;;;;;;;14.60;99.90;;;;;;6307008;22;19946;-77
2022/09/09 07:03:58;;;;;;;;;;;14.60;99.90;;;;;;6307070;22;20298;-78
2022/09/09 07:06:25;;;;;;;;;;;14.70;99.90;;;;;;6307045;22;20232;-76
2022/09/09 07:08:51;;;;;;;;;;;14.70;99.90;;;;;;6281295;22;19946;-77
2022/09/09 07:11:18;;;;;;;;;;;14.70;99.90;;;;;;6306904;22;19914;-77
2022/09/09 07:13:43;;;;;;;;;;;14.70;99.90;;;;;;6307267;22;19956;-77
2022/09/09 07:16:12;;;;;;;;;;;14.70;99.90;;;;;;6306908;22;19989;-77
2022/09/09 07:18:39;;;;;;;;;;;14.70;99.90;;;;;;6281556;22;19939;-77
2022/09/09 07:21:06;;;;;;;;;;;14.80;99.90;;;;;;6281028;22;19918;-77
2022/09/09 07:23:32;;;;;;;;;;;14.80;99.90;;;;;;6281538;22;20376;-78
2022/09/09 07:25:58;;;;;;;;;;;14.80;99.90;;;;;;6281059;22;19953;-77
2022/09/09 07:28:25;;;;;;;;;;;15.00;99.90;;;;;;6281393;22;19949;-77
2022/09/09 07:30:58;;;;;;;;;;;15.20;99.90;;;;;;6281220;22;19917;-77
2022/09/09 07:33:25;;;;;;;;;;;15.40;99.90;;;;;;6280759;22;19956;-78
2022/09/09 07:35:51;;;;;;;;;;;15.50;99.90;;;;;;6280989;22;20325;-78
2022/09/09 07:38:31;;;;;;;;;;;15.50;99.90;;;;;;6306507;22;19943;-82
2022/09/09 07:41:18;;;;;;;;;;;15.40;99.90;;;;;;6305407;22;19977;-80
2022/09/09 07:43:45;;;;;;;;;;;15.50;99.90;;;;;;6279848;22;19918;-79
2022/09/09 07:46:11;;;;;;;;;;;15.60;99.90;;;;;;6254236;22;19911;-80
2022/09/09 07:48:37;;;;;;;;;;;15.80;99.90;;;;;;6254240;22;19989;-80
2022/09/09 07:51:06;;;;;;;;;;;16.00;99.90;;;;;;6254078;22;19938;-79
2022/09/09 07:53:54;;;;;;;;;;;16.10;99.90;;;;;;6254061;22;19915;-80
2022/09/09 07:56:23;;;;;;;;;;;15.90;99.90;;;;;;6234432;22;19915;-80
2022/09/09 07:58:48;;;;;;;;;;;15.80;99.90;;;;;;6279819;22;20254;-80
2022/09/09 08:01:17;;;;;;;;;;;15.80;99.90;;;;;;6253790;22;19915;-79
2022/09/09 08:03:48;;;;;;;;;;;15.90;99.90;;;;;;6254172;22;20329;-79
2022/09/09 08:06:14;;;;;;;;;;;16.10;99.90;;;;;;6279550;22;20260;-80
2022/09/09 08:08:43;;;;;;;;;;;16.10;99.90;;;;;;6279607;22;19982;-80
2022/09/09 08:11:12;;;;;;;;;;;16.10;99.90;;;;;;6280006;22;19946;-80
2022/09/09 08:13:39;;;;;;;;;;;16.40;99.90;;;;;;6280606;22;20313;-80
2022/09/09 08:16:09;;;;;;;;;;;16.50;99.90;;;;;;6281266;22;20371;-80
2022/09/09 08:18:35;;;;;;;;;;;16.60;99.90;;;;;;6281224;22;19940;-81
2022/09/09 08:21:21;;;;;;;;;;;16.70;99.90;;;;;;6280990;22;20362;-80
2022/09/09 08:23:48;;;;;;;;;;;16.60;99.90;;;;;;6281227;22;19915;-79
2022/09/09 08:26:21;;;;;;;;;;;16.60;99.90;;;;;;6281108;22;19911;-80
2022/09/09 08:28:51;;;;;;;;;;;16.70;99.90;;;;;;6281065;22;20310;-80
2022/09/09 08:31:18;;;;;;;;;;;16.70;99.90;;;;;;6306778;22;19918;-80
2022/09/09 08:33:46;;;;;;;;;;;16.80;99.90;;;;;;6280927;22;19953;-80
2022/09/09 08:36:16;;;;;;;;;;;16.90;99.90;;;;;;6306377;22;19926;-81
2022/09/09 08:38:42;;;;;;;;;;;17.00;99.90;;;;;;6280454;22;19919;-77
2022/09/09 08:41:27;;;;;;;;;;;17.10;99.90;;;;;;6278162;22;19960;-76
2022/09/09 08:54:17;;;;;;;;;;;17.90;99.90;;;;;;6124251;23;19928;-79
2022/09/09 08:56:46;;;;;;;;;;;17.90;99.90;;;;;;6099959;23;19964;-77
2022/09/09 08:59:26;;;;;;;;;;;17.90;99.90;;;;;;6120167;23;19913;-79
2022/09/09 09:01:56;;;;;;;;;;;17.70;99.90;;;;;;6168181;23;20271;-80
2022/09/09 09:04:54;;;;;;;;;;;17.70;99.90;;;;;;6218782;22;19914;-78
2022/09/09 09:07:51;;;;;;;;;;;;;;;;;;;;;
2022/09/09 09:11:08;;;;;;;;;;;;;;;;;;;;;
2022/09/09 09:14:59;;;;;;;;;;;;;;;;;;;;;
2022/09/09 09:18:05;;;;;;;;;;;17.70;99.90;;;;;;6073348;23;19985;-76
2022/09/09 09:20:45;;;;;;;;;;;17.80;99.90;;;;;;6157559;23;19923;-76
2022/09/09 09:23:55;;;;;;;;;;;17.80;99.90;;;;;;6123579;23;19940;-78
2022/09/09 09:30:38;;;;;;;;;;;;;;;;;;;;;
2022/09/09 09:37:26;;;;;;;;;;;18.00;99.90;;;;;;6094832;23;19920;-76
2022/09/09 10:10:12;;;;;;;;;;;18.50;99.90;;;;;;6153240;23;20056;-75
2022/09/09 10:37:06;;;;;;;;;;;19.00;99.90;;;;;;6290804;22;19915;-77
2022/09/09 10:46:54;;;;;;;;;;;19.50;99.90;;;;;;6307285;22;19930;-77
2022/09/09 10:50:26;;;;;;;;;;;19.70;99.90;;;;;;6182534;23;19916;-76
2022/09/09 11:31:55;;;;;;;;;;;19.20;99.90;;;;;;6339007;22;19909;-78
2022/09/09 11:34:43;;;;;;;;;;;19.10;99.90;;;;;;6312084;22;19914;-78
2022/09/09 11:47:35;;;;;;;;;;;19.90;99.90;;;;;;6217361;22;20370;-78
2022/09/09 11:50:16;;;;;;;;;;;20.00;99.90;;;;;;6284935;22;19911;-79
2022/09/09 12:05:24;;;;;;;;;;;20.30;99.90;;;;;;6308329;22;19915;-79
2022/09/09 12:11:11;;;;;;;;;;;20.20;99.90;;;;;;6305709;22;20314;-71
2022/09/09 12:13:37;;;;;;;;;;;20.10;99.90;;;;;;6304405;22;19962;-71
2022/09/09 12:16:05;;;;;;;;;;;20.10;99.90;;;;;;6331406;22;19910;-75
2022/09/09 12:18:36;;;;;;;;;;;19.90;99.90;;;;;;6306830;22;19915;-72
2022/09/09 12:21:05;;;;;;;;;;;19.80;99.90;;;;;;6304516;22;19911;-73
2022/09/09 12:23:33;;;;;;;;;;;19.70;99.90;;;;;;6305871;22;19910;-75
2022/09/09 12:26:11;;;;;;;;;;;19.60;99.90;;;;;;6279903;22;19910;-74
2022/09/09 12:28:54;;;;;;;;;;;19.40;99.90;;;;;;6307034;22;19946;-75
2022/09/09 12:31:39;;;;;;;;;;;19.20;99.90;;;;;;6306551;22;19988;-75
2022/09/09 12:38:11;;;;;;;;;;;19.50;99.90;;;;;;6306685;22;19926;-77
2022/09/09 12:40:38;;;;;;;;;;;19.50;99.90;;;;;;6272165;22;20318;-77
2022/09/09 12:43:33;;;;;;;;;;;19.60;99.90;;;;;;6248189;22;19989;-75
2022/09/09 12:46:03;;;;;;;;;;;19.90;99.90;;;;;;6248673;22;20355;-72
2022/09/09 12:48:37;;;;;;;;;;;20.00;99.90;;;;;;6224002;22;19923;-75
2022/09/09 12:51:05;;;;;;;;;;;20.10;99.90;;;;;;6224121;22;19934;-72
2022/09/09 13:52:13;;;;;;;;;;;19.30;99.90;;;;;;6308306;22;19951;-77
2022/09/09 13:54:42;;;;;;;;;;;19.10;99.90;;;;;;6255915;22;19915;-74
2022/09/09 13:57:43;;;;;;;;;;;19.00;99.90;;;;;;6232513;22;19911;-75
2022/09/09 14:00:43;;;;;;;;;;;;;;;;;;;;;
2022/09/09 14:03:37;;;;;;;;;;;19.50;99.90;;;;;;6247843;22;19915;-80
2022/09/09 14:10:21;;;;;;;;;;;19.80;99.90;;;;;;6277178;22;19957;-78
2022/09/09 14:13:11;;;;;;;;;;;19.70;99.90;;;;;;6248800;22;19969;-76
2022/09/09 14:15:46;;;;;;;;;;;19.90;99.90;;;;;;6247964;22;19916;-74
2022/09/09 14:21:35;;;;;;;;;;;20.20;99.90;;;;;;6217734;22;19911;-72
2022/09/09 14:45:37;;;;;;;;;;;20.30;99.90;;;;;;6246082;23;19915;-69
2022/09/09 14:48:03;;;;;;;;;;;20.40;99.90;;;;;;6219579;23;19996;-70
2022/09/09 14:50:28;;;;;;;;;;;20.30;99.90;;;;;;6245901;23;20297;-70
2022/09/09 14:52:54;;;;;;;;;;;20.10;99.90;;;;;;6218490;23;19916;-70
2022/09/09 14:55:21;;;;;;;;;;;19.80;99.90;;;;;;6218848;23;19915;-69
2022/09/09 14:57:46;;;;;;;;;;;19.40;99.90;;;;;;6219242;23;19922;-68
2022/09/09 15:00:13;;;;;;;;;;;19.00;99.90;;;;;;6219263;23;19950;-70
2022/09/09 15:02:38;;;;;;;;;;;18.80;99.90;;;;;;6218972;23;19927;-69
2022/09/09 15:05:04;;;;;;;;;;;18.70;99.90;;;;;;6218927;23;19919;-70
2022/09/09 15:07:31;;;;;;;;;;;18.50;99.90;;;;;;6219130;23;20242;-69
2022/09/09 15:09:57;;;;;;;;;;;18.40;99.90;;;;;;6243983;23;19923;-71
2022/09/09 15:12:23;;;;;;;;;;;18.40;99.90;;;;;;6218772;23;19916;-68
2022/09/09 15:21:43;;;;;;;;;;;17.80;99.90;;;;;;6245213;23;20345;-77
2022/09/09 15:24:18;;;;;;;;;;;18.00;99.90;;;;;;6192780;23;19959;-79
2022/09/09 15:30:00;;;;;;;;;;;18.40;99.90;;;;;;6218669;23;19918;-74
2022/09/09 15:32:42;;;;;;;;;;;18.30;99.90;;;;;;6195201;23;19918;-76
2022/09/09 15:35:07;;;;;;;;;;;18.40;99.90;;;;;;6220200;23;19911;-77
2022/09/09 15:37:33;;;;;;;;;;;18.50;99.90;;;;;;6194615;23;19922;-78
2022/09/09 15:40:00;;;;;;;;;;;18.70;99.90;;;;;;6194323;23;19922;-76
2022/09/09 15:42:29;;;;;;;;;;;18.40;99.90;;;;;;6195394;23;19964;-74
2022/09/09 15:44:55;;;;;;;;;;;18.40;99.90;;;;;;6219753;23;19911;-76
2022/09/09 15:47:21;;;;;;;;;;;18.40;99.90;;;;;;6194775;23;20302;-74
2022/09/09 15:49:47;;;;;;;;;;;18.20;99.90;;;;;;6194746;23;19954;-75
2022/09/09 15:52:12;;;;;;;;;;;18.10;99.90;;;;;;6220052;23;19965;-76
2022/09/09 15:54:38;;;;;;;;;;;18.00;99.90;;;;;;6220058;23;19970;-78
2022/09/09 15:57:46;;;;;;;;;;;17.90;99.90;;;;;;6219945;23;19994;-78
2022/09/09 15:59:57;;;;;;;;;;;17.80;99.90;;;;;;6210228;23;19973;-80
2022/09/09 16:08:56;;;;;;;;;;;17.70;99.90;;;;;;6183085;23;20305;-76
2022/09/09 16:11:40;;;;;;;;;;;17.70;99.90;;;;;;6134025;23;20006;-82
2022/09/09 16:26:59;;;;;;;;;;;17.40;99.90;;;;;;6296427;22;19968;-74
2022/09/09 16:29:27;;;;;;;;;;;17.30;99.90;;;;;;6279994;22;19915;-75
2022/09/09 16:31:53;;;;;;;;;;;17.20;99.90;;;;;;6307321;22;20322;-76
2022/09/09 16:34:19;;;;;;;;;;;17.30;99.90;;;;;;6279789;22;20078;-75
2022/09/09 16:36:45;;;;;;;;;;;17.30;99.90;;;;;;6254722;22;20230;-74
2022/09/09 16:39:12;;;;;;;;;;;17.30;99.90;;;;;;6280620;22;20044;-76
2022/09/09 16:41:38;;;;;;;;;;;17.20;99.90;;;;;;6281644;22;19964;-76
2022/09/09 16:44:05;;;;;;;;;;;17.10;99.90;;;;;;6280978;22;19914;-75
2022/09/09 16:46:32;;;;;;;;;;;17.10;99.90;;;;;;6281089;22;19937;-74
2022/09/09 16:48:58;;;;;;;;;;;17.00;99.90;;;;;;6255522;22;19914;-74
2022/09/09 16:51:27;;;;;;;;;;;16.90;99.90;;;;;;6280567;22;19962;-75
2022/09/09 16:53:53;;;;;;;;;;;16.70;99.90;;;;;;6255412;22;19915;-76
2022/09/09 16:56:20;;;;;;;;;;;16.70;99.90;;;;;;6255242;22;20022;-76
2022/09/09 16:58:55;;;;;;;;;;;16.60;99.90;;;;;;6280842;22;19969;-75
2022/09/09 17:01:20;;;;;;;;;;;16.60;99.90;;;;;;6281112;22;19984;-75
2022/09/09 17:03:46;;;;;;;;;;;16.60;99.90;;;;;;6282718;22;20318;-76
2022/09/09 17:06:12;;;;;;;;;;;16.70;99.90;;;;;;6282652;22;19924;-74
2022/09/09 17:08:41;;;;;;;;;;;16.80;99.90;;;;;;6282780;22;19914;-76
2022/09/09 17:11:14;;;;;;;;;;;16.90;99.90;;;;;;6282748;22;20229;-75
2022/09/09 17:13:40;;;;;;;;;;;16.90;99.90;;;;;;6282589;22;19972;-74
2022/09/09 17:16:07;;;;;;;;;;;16.80;99.90;;;;;;6282613;22;19961;-75
2022/09/09 17:18:33;;;;;;;;;;;16.80;99.90;;;;;;6282917;22;19994;-76
2022/09/09 17:21:02;;;;;;;;;;;16.60;99.90;;;;;;6256971;22;19957;-75
2022/09/09 17:23:28;;;;;;;;;;;16.60;99.90;;;;;;6282369;22;19915;-74
2022/09/09 17:25:58;;;;;;;;;;;16.50;99.90;;;;;;6256680;22;19990;-75
2022/09/09 17:28:27;;;;;;;;;;;16.40;99.90;;;;;;6256840;22;20306;-76
2022/09/09 17:30:53;;;;;;;;;;;16.30;99.90;;;;;;6256747;22;19922;-76
2022/09/09 17:33:20;;;;;;;;;;;16.30;99.90;;;;;;6256635;22;19915;-76
2022/09/09 17:35:46;;;;;;;;;;;16.40;99.90;;;;;;6307753;22;20318;-73
2022/09/09 17:38:12;;;;;;;;;;;16.30;99.90;;;;;;6256864;22;19914;-72
2022/09/09 17:40:37;;;;;;;;;;;16.30;99.90;;;;;;6256999;22;19915;-73
2022/09/09 17:43:03;;;;;;;;;;;16.30;99.90;;;;;;6282275;22;19915;-74
2022/09/09 17:45:30;;;;;;;;;;;16.30;99.90;;;;;;6282265;22;19914;-74
2022/09/09 17:47:56;;;;;;;;;;;16.30;99.90;;;;;;6257170;22;19921;-73
2022/09/09 17:50:22;;;;;;;;;;;16.30;99.90;;;;;;6309607;22;19919;-73
2022/09/09 17:52:48;;;;;;;;;;;16.30;99.90;;;;;;6256686;22;20379;-72
2022/09/09 17:55:14;;;;;;;;;;;16.30;99.90;;;;;;6281618;22;19911;-72
2022/09/09 17:57:39;;;;;;;;;;;16.30;99.90;;;;;;6256141;22;19919;-72
2022/09/09 18:00:05;;;;;;;;;;;16.20;99.90;;;;;;6256221;22;19918;-72
2022/09/09 18:02:33;;;;;;;;;;;16.20;99.90;;;;;;6281510;22;20423;-72
2022/09/09 18:05:01;;;;;;;;;;;16.10;99.90;;;;;;6256461;22;20387;-73
2022/09/09 18:07:26;;;;;;;;;;;16.10;99.90;;;;;;6281749;22;20317;-72
2022/09/09 18:09:52;;;;;;;;;;;16.10;99.90;;;;;;6256552;22;19925;-73
2022/09/09 18:12:17;;;;;;;;;;;16.10;99.90;;;;;;6255902;22;19911;-73
2022/09/09 18:14:43;;;;;;;;;;;16.00;99.90;;;;;;6256010;22;19911;-73
2022/09/09 18:17:09;;;;;;;;;;;16.00;99.90;;;;;;6281606;22;19922;-73
2022/09/09 18:19:35;;;;;;;;;;;16.00;99.90;;;;;;6280816;22;19981;-71
2022/09/09 18:22:03;;;;;;;;;;;16.00;99.90;;;;;;6256590;22;19968;-74
2022/09/09 18:24:30;;;;;;;;;;;16.00;99.90;;;;;;6281797;22;19919;-72
2022/09/09 18:27:30;;;;;;;;;;;16.00;99.90;;;;;;6281199;22;19914;-82
2022/09/09 18:30:01;;;;;;;;;;;16.00;99.90;;;;;;6291980;22;20279;-74
2022/09/09 18:32:29;;;;;;;;;;;16.10;99.90;;;;;;6281130;22;19911;-74
2022/09/09 18:34:57;;;;;;;;;;;16.10;99.90;;;;;;6281658;22;19922;-74
2022/09/09 18:37:32;;;;;;;;;;;16.00;99.90;;;;;;6254395;22;20339;-72
2022/09/09 18:39:58;;;;;;;;;;;16.00;99.90;;;;;;6282153;22;20285;-72
2022/09/09 18:42:25;;;;;;;;;;;16.00;99.90;;;;;;6256245;22;19986;-72
2022/09/09 18:44:51;;;;;;;;;;;16.10;99.90;;;;;;6281671;22;20202;-71
2022/09/09 18:47:16;;;;;;;;;;;16.00;99.90;;;;;;6281466;22;19917;-72
2022/09/09 18:49:42;;;;;;;;;;;16.00;99.90;;;;;;6307641;22;19910;-72
2022/09/09 18:52:13;;;;;;;;;;;16.10;99.90;;;;;;6282146;22;19910;-72
2022/09/09 18:54:42;;;;;;;;;;;16.00;99.90;;;;;;6263745;22;19919;-73
2022/09/09 18:57:09;;;;;;;;;;;16.00;99.90;;;;;;6294357;22;19911;-73
2022/09/09 18:59:35;;;;;;;;;;;16.00;99.90;;;;;;6293098;22;19910;-72
2022/09/09 19:02:00;;;;;;;;;;;16.00;99.90;;;;;;6295955;22;19911;-73
2022/09/09 19:04:26;;;;;;;;;;;16.00;99.90;;;;;;6327633;22;19922;-75
2022/09/09 19:06:56;;;;;;;;;;;16.10;99.90;;;;;;6281193;22;19992;-75
2022/09/09 19:09:22;;;;;;;;;;;16.00;99.90;;;;;;6255623;22;19914;-75
2022/09/09 19:11:50;;;;;;;;;;;16.00;99.90;;;;;;6255622;22;19915;-74
2022/09/09 19:14:16;;;;;;;;;;;16.00;99.90;;;;;;6281528;22;19911;-74
2022/09/09 19:16:44;;;;;;;;;;;16.10;99.90;;;;;;6281532;22;19915;-75
2022/09/09 19:19:17;;;;;;;;;;;16.10;99.90;;;;;;6281176;22;19922;-74
2022/09/09 19:21:43;;;;;;;;;;;16.10;99.90;;;;;;6281582;22;19918;-75
2022/09/09 19:24:10;;;;;;;;;;;16.20;99.90;;;;;;6280989;22;19918;-74
2022/09/09 19:26:39;;;;;;;;;;;16.20;99.90;;;;;;6255441;22;20306;-74
2022/09/09 19:29:06;;;;;;;;;;;16.10;99.90;;;;;;6280932;22;19915;-75
2022/09/09 19:31:31;;;;;;;;;;;16.10;99.90;;;;;;6281583;22;20214;-76
2022/09/09 19:33:57;;;;;;;;;;;16.10;99.90;;;;;;6281023;22;19918;-74
2022/09/09 19:36:23;;;;;;;;;;;16.00;99.90;;;;;;6280887;22;19915;-75
2022/09/09 19:38:49;;;;;;;;;;;15.90;99.90;;;;;;6280980;22;19946;-74
2022/09/09 19:41:17;;;;;;;;;;;15.80;99.90;;;;;;6280946;22;19956;-75
2022/09/09 19:43:43;;;;;;;;;;;15.80;99.90;;;;;;6281107;22;19981;-74
2022/09/09 19:46:10;;;;;;;;;;;15.90;99.90;;;;;;6281338;22;19922;-75
2022/09/09 19:48:37;;;;;;;;;;;15.90;99.90;;;;;;6281161;22;19915;-75
2022/09/09 19:51:03;;;;;;;;;;;15.90;99.90;;;;;;6307242;22;19915;-76
2022/09/09 19:53:29;;;;;;;;;;;15.90;99.90;;;;;;6281077;22;19950;-76
2022/09/09 19:55:55;;;;;;;;;;;15.90;99.90;;;;;;6281155;22;20267;-75
2022/09/09 19:58:21;;;;;;;;;;;16.00;99.90;;;;;;6255608;22;19942;-74
2022/09/09 20:00:46;;;;;;;;;;;16.00;99.90;;;;;;6308310;22;20020;-75
2022/09/09 20:03:12;;;;;;;;;;;15.90;99.90;;;;;;6254825;22;19953;-74
2022/09/09 20:05:37;;;;;;;;;;;15.90;99.90;;;;;;6280814;22;19922;-74
2022/09/09 20:08:03;;;;;;;;;;;15.90;99.90;;;;;;6280861;22;19915;-75
2022/09/09 20:10:29;;;;;;;;;;;15.90;99.90;;;;;;6280898;22;19915;-74
2022/09/09 20:12:55;;;;;;;;;;;15.90;99.90;;;;;;6280616;22;19985;-74
2022/09/09 20:15:20;;;;;;;;;;;15.90;99.90;;;;;;6280725;22;20008;-76
2022/09/09 20:17:47;;;;;;;;;;;15.90;99.90;;;;;;6308427;22;20309;-75
2022/09/09 20:20:12;;;;;;;;;;;15.90;99.90;;;;;;6281187;22;19915;-75
2022/09/09 20:22:38;;;;;;;;;;;15.90;99.90;;;;;;6280986;22;19915;-75
2022/09/09 20:25:03;;;;;;;;;;;15.80;99.90;;;;;;6281000;22;19923;-76
2022/09/09 20:27:30;;;;;;;;;;;15.80;99.90;;;;;;6255753;22;20345;-75
2022/09/09 20:29:56;;;;;;;;;;;15.80;99.90;;;;;;6255528;22;20044;-75
2022/09/09 20:32:22;;;;;;;;;;;15.80;99.90;;;;;;6281151;22;19918;-75
2022/09/09 20:34:47;;;;;;;;;;;15.80;99.90;;;;;;6255451;22;20370;-75
2022/09/09 20:37:13;;;;;;;;;;;15.70;99.90;;;;;;6281761;22;19954;-75
2022/09/09 20:39:39;;;;;;;;;;;15.80;99.90;;;;;;6310442;22;20071;-74
2022/09/09 20:42:04;;;;;;;;;;;15.80;99.90;;;;;;6283079;22;19946;-76
2022/09/09 20:44:30;;;;;;;;;;;15.70;99.90;;;;;;6282988;22;20229;-75
2022/09/09 20:46:59;;;;;;;;;;;15.70;99.90;;;;;;6282617;22;20282;-73
2022/09/09 20:49:25;;;;;;;;;;;15.70;99.90;;;;;;6283061;22;19922;-75
2022/09/09 20:51:51;;;;;;;;;;;15.70;99.90;;;;;;6257446;22;19915;-74
2022/09/09 20:54:22;;;;;;;;;;;15.70;99.90;;;;;;6282099;22;19941;-75
2022/09/09 20:56:49;;;;;;;;;;;15.60;99.90;;;;;;6282949;22;19925;-76
2022/09/09 20:59:17;;;;;;;;;;;15.60;99.90;;;;;;6257311;22;19982;-74
2022/09/09 21:01:43;;;;;;;;;;;15.60;99.90;;;;;;6257219;22;19919;-74
2022/09/09 21:04:08;;;;;;;;;;;15.60;99.90;;;;;;6257100;22;19915;-76
2022/09/09 21:06:34;;;;;;;;;;;15.50;99.90;;;;;;6282709;22;19915;-76
2022/09/09 21:08:59;;;;;;;;;;;15.50;99.90;;;;;;6257266;22;19919;-76
2022/09/09 21:11:25;;;;;;;;;;;15.40;99.90;;;;;;6282132;22;19914;-75
2022/09/09 21:13:51;;;;;;;;;;;15.40;99.90;;;;;;6282517;22;19915;-76
2022/09/09 21:16:19;;;;;;;;;;;15.40;99.90;;;;;;6282563;22;19915;-77
2022/09/09 21:18:46;;;;;;;;;;;15.40;99.90;;;;;;6282610;22;20275;-75
2022/09/09 21:21:15;;;;;;;;;;;15.30;99.90;;;;;;6282607;22;19915;-76
2022/09/09 21:23:40;;;;;;;;;;;15.30;99.90;;;;;;6282672;22;19915;-76
2022/09/09 21:33:41;;;;;;;;;;;15.40;99.90;;;;;;6309201;22;19990;-75
2022/09/09 21:36:09;;;;;;;;;;;15.30;99.90;;;;;;6309495;22;19994;-76
2022/09/09 21:38:42;;;;;;;;;;;15.30;99.90;;;;;;6256117;22;19917;-76
2022/09/09 21:41:11;;;;;;;;;;;15.30;99.90;;;;;;6307377;22;19911;-74
2022/09/09 21:43:56;;;;;;;;;;;15.30;99.90;;;;;;6256304;22;19989;-77
2022/09/09 21:46:30;;;;;;;;;;;15.10;99.90;;;;;;6255783;22;19942;-78
2022/09/09 21:49:07;;;;;;;;;;;15.20;99.90;;;;;;6257059;22;19918;-78
2022/09/09 21:51:45;;;;;;;;;;;15.10;99.90;;;;;;6281128;22;19910;-78
2022/09/09 21:54:45;;;;;;;;;;;15.20;99.90;;;;;;6266064;22;19934;-77
2022/09/09 21:57:38;;;;;;;;;;;15.20;99.90;;;;;;6248443;22;19989;-77
2022/09/09 22:00:29;;;;;;;;;;;15.20;99.90;;;;;;6255482;22;20309;-78
2022/09/09 22:03:18;;;;;;;;;;;15.20;99.90;;;;;;6281363;22;19911;-76
2022/09/09 22:05:49;;;;;;;;;;;15.20;99.90;;;;;;6273844;22;19917;-77
2022/09/09 22:08:50;;;;;;;;;;;;;;;;;;;;;
2022/09/09 22:14:41;;;;;;;;;;;;;;;;;;;;;
2022/09/09 22:17:47;;;;;;;;;;;15.30;99.90;;;;;;6218090;23;19912;-78
2022/09/09 22:20:31;;;;;;;;;;;15.20;99.90;;;;;;6218775;23;19911;-77
2022/09/09 22:23:34;;;;;;;;;;;15.10;99.90;;;;;;6217229;23;19911;-79
2022/09/09 22:26:30;;;;;;;;;;;15.20;99.90;;;;;;6218162;23;19922;-77
2022/09/09 22:29:30;;;;;;;;;;;15.20;99.90;;;;;;6213807;23;19919;-77
2022/09/09 22:35:24;;;;;;;;;;;15.00;99.90;;;;;;6194312;23;19959;-78
2022/09/09 22:38:06;;;;;;;;;;;15.10;99.90;;;;;;6188577;23;19912;-79
2022/09/09 22:40:58;;;;;;;;;;;15.10;99.90;;;;;;6188600;23;20387;-77
2022/09/09 22:43:51;;;;;;;;;;;15.00;99.90;;;;;;6188280;23;19966;-77
2022/09/09 22:46:38;;;;;;;;;;;15.00;99.90;;;;;;6188789;23;20319;-77
2022/09/09 22:49:07;;;;;;;;;;;14.90;99.90;;;;;;6188840;23;19912;-78
2022/09/09 22:51:53;;;;;;;;;;;14.90;99.90;;;;;;6187029;23;19912;-77
2022/09/09 22:54:23;;;;;;;;;;;14.90;99.90;;;;;;6185577;23;19919;-78
2022/09/09 22:57:02;;;;;;;;;;;14.90;99.90;;;;;;6189332;23;19954;-78
2022/09/09 22:59:48;;;;;;;;;;;;;;;;;;;;;
2022/09/09 23:02:29;;;;;;;;;;;14.80;99.90;;;;;;6252864;22;20229;-77
2022/09/09 23:05:03;;;;;;;;;;;14.90;99.90;;;;;;6276382;22;19911;-78
2022/09/09 23:07:45;;;;;;;;;;;14.80;99.90;;;;;;6276240;22;19912;-77
2022/09/09 23:10:30;;;;;;;;;;;14.70;99.90;;;;;;6277298;22;20284;-76
2022/09/09 23:13:13;;;;;;;;;;;14.70;99.90;;;;;;6276270;22;20205;-77
2022/09/09 23:15:55;;;;;;;;;;;14.60;99.90;;;;;;6253687;22;19990;-76
2022/09/09 23:18:27;;;;;;;;;;;14.60;99.90;;;;;;6275073;22;19918;-79
2022/09/09 23:21:12;;;;;;;;;;;14.50;99.90;;;;;;6275510;22;19918;-76
2022/09/09 23:23:58;;;;;;;;;;;14.40;99.90;;;;;;6273129;22;19911;-78
2022/09/09 23:26:37;;;;;;;;;;;14.40;99.90;;;;;;6274924;22;19964;-77
2022/09/09 23:29:31;;;;;;;;;;;14.40;99.90;;;;;;6212639;22;19911;-76
2022/09/09 23:32:07;;;;;;;;;;;14.40;99.90;;;;;;6274135;22;19911;-77
2022/09/09 23:34:46;;;;;;;;;;;14.40;99.90;;;;;;6275903;22;19915;-77
2022/09/09 23:37:25;;;;;;;;;;;14.40;99.90;;;;;;6276166;22;19942;-78
2022/09/09 23:39:59;;;;;;;;;;;14.40;99.90;;;;;;6275390;22;19911;-77
2022/09/09 23:42:46;;;;;;;;;;;14.30;99.90;;;;;;6275931;22;19937;-76
2022/09/09 23:45:12;;;;;;;;;;;14.30;99.90;;;;;;6275619;22;20278;-77
2022/09/09 23:47:40;;;;;;;;;;;14.30;99.90;;;;;;6275441;22;19948;-77
2022/09/09 23:50:11;;;;;;;;;;;14.30;99.90;;;;;;6273998;22;19946;-77
2022/09/09 23:52:47;;;;;;;;;;;14.30;99.90;;;;;;6276133;22;19915;-76
2022/09/09 23:55:25;;;;;;;;;;;14.30;99.90;;;;;;6275366;22;19938;-77
2022/09/09 23:57:53;;;;;;;;;;;14.20;99.90;;;;;;6276174;22;19911;-77
